sensor_id;sensor_type;location;lat;lon;timestamp;P1;durP1;ratioP1;P2;durP2;ratioP2
63173;SDS011;49265;54.526;9.028;2024-01-06T00:02:15;7.25;;;3.33;;
63173;SDS011;49265;54.526;9.028;2024-01-06T00:04:41;5.47;;;3.58;;
63173;SDS011;49265;54.526;9.028;2024-01-06T00:07:06;6.20;;;3.20;;
63173;SDS011;49265;54.526;9.028;2024-01-06T00:09:31;11.15;;;3.90;;
63173;SDS011;49265;54.526;9.028;2024-01-06T00:11:57;6.53;;;3.60;;
63173;SDS011;49265;54.526;9.028;2024-01-06T00:14:22;12.40;;;3.58;;
63173;SDS011;49265;54.526;9.028;2024-01-06T00:16:47;5.50;;;3.10;;
63173;SDS011;49265;54.526;9.028;2024-01-06T00:19:13;7.75;;;3.17;;
63173;SDS011;49265;54.526;9.028;2024-01-06T00:21:38;9.30;;;3.10;;
63173;SDS011;49265;54.526;9.028;2024-01-06T00:24:04;5.65;;;2.55;;
63173;SDS011;49265;54.526;9.028;2024-01-06T00:26:29;5.40;;;2.90;;
63173;SDS011;49265;54.526;9.028;2024-01-06T00:28:54;6.22;;;3.05;;
63173;SDS011;49265;54.526;9.028;2024-01-06T00:31:20;7.57;;;3.05;;
63173;SDS011;49265;54.526;9.028;2024-01-06T00:33:45;8.68;;;3.22;;
63173;SDS011;49265;54.526;9.028;2024-01-06T00:36:11;5.82;;;2.92;;
63173;SDS011;49265;54.526;9.028;2024-01-06T00:38:37;4.53;;;2.92;;
63173;SDS011;49265;54.526;9.028;2024-01-06T00:41:02;9.95;;;3.58;;
63173;SDS011;49265;54.526;9.028;2024-01-06T00:43:27;5.82;;;3.50;;
63173;SDS011;49265;54.526;9.028;2024-01-06T00:45:53;4.05;;;2.60;;
63173;SDS011;49265;54.526;9.028;2024-01-06T00:48:18;8.05;;;2.95;;
63173;SDS011;49265;54.526;9.028;2024-01-06T00:50:43;6.63;;;3.03;;
63173;SDS011;49265;54.526;9.028;2024-01-06T00:53:09;5.03;;;2.78;;
63173;SDS011;49265;54.526;9.028;2024-01-06T00:55:34;7.43;;;3.35;;
63173;SDS011;49265;54.526;9.028;2024-01-06T00:57:59;7.68;;;2.97;;
63173;SDS011;49265;54.526;9.028;2024-01-06T01:00:25;5.18;;;3.00;;
63173;SDS011;49265;54.526;9.028;2024-01-06T01:02:52;4.40;;;2.88;;
63173;SDS011;49265;54.526;9.028;2024-01-06T01:05:17;5.47;;;2.88;;
63173;SDS011;49265;54.526;9.028;2024-01-06T01:07:43;4.10;;;2.60;;
63173;SDS011;49265;54.526;9.028;2024-01-06T01:10:08;6.47;;;2.85;;
63173;SDS011;49265;54.526;9.028;2024-01-06T01:12:35;6.15;;;2.97;;
63173;SDS011;49265;54.526;9.028;2024-01-06T01:15:00;4.38;;;2.60;;
63173;SDS011;49265;54.526;9.028;2024-01-06T01:17:25;5.03;;;2.83;;
63173;SDS011;49265;54.526;9.028;2024-01-06T01:19:51;5.28;;;2.92;;
63173;SDS011;49265;54.526;9.028;2024-01-06T01:22:16;5.38;;;2.60;;
63173;SDS011;49265;54.526;9.028;2024-01-06T01:24:42;5.95;;;2.58;;
63173;SDS011;49265;54.526;9.028;2024-01-06T01:27:07;7.18;;;3.13;;
63173;SDS011;49265;54.526;9.028;2024-01-06T01:29:32;5.72;;;2.97;;
63173;SDS011;49265;54.526;9.028;2024-01-06T01:31:58;4.40;;;2.63;;
63173;SDS011;49265;54.526;9.028;2024-01-06T01:34:23;4.88;;;3.00;;
63173;SDS011;49265;54.526;9.028;2024-01-06T01:36:48;6.55;;;3.38;;
63173;SDS011;49265;54.526;9.028;2024-01-06T01:39:13;8.88;;;3.22;;
63173;SDS011;49265;54.526;9.028;2024-01-06T01:41:39;6.85;;;3.15;;
63173;SDS011;49265;54.526;9.028;2024-01-06T01:44:05;5.93;;;3.00;;
63173;SDS011;49265;54.526;9.028;2024-01-06T01:46:30;6.18;;;2.97;;
63173;SDS011;49265;54.526;9.028;2024-01-06T01:48:56;5.30;;;2.70;;
63173;SDS011;49265;54.526;9.028;2024-01-06T01:51:22;5.63;;;2.90;;
63173;SDS011;49265;54.526;9.028;2024-01-06T01:53:48;7.78;;;3.22;;
63173;SDS011;49265;54.526;9.028;2024-01-06T01:56:14;6.13;;;2.80;;
63173;SDS011;49265;54.526;9.028;2024-01-06T01:58:39;7.18;;;2.97;;
63173;SDS011;49265;54.526;9.028;2024-01-06T02:01:06;5.80;;;3.25;;
63173;SDS011;49265;54.526;9.028;2024-01-06T02:03:31;7.97;;;3.22;;
63173;SDS011;49265;54.526;9.028;2024-01-06T02:05:57;8.20;;;3.22;;
63173;SDS011;49265;54.526;9.028;2024-01-06T02:08:22;6.85;;;3.65;;
63173;SDS011;49265;54.526;9.028;2024-01-06T02:10:48;5.82;;;3.20;;
63173;SDS011;49265;54.526;9.028;2024-01-06T02:13:13;5.00;;;3.00;;
63173;SDS011;49265;54.526;9.028;2024-01-06T02:15:39;10.10;;;4.15;;
63173;SDS011;49265;54.526;9.028;2024-01-06T02:18:04;6.82;;;3.33;;
63173;SDS011;49265;54.526;9.028;2024-01-06T02:20:30;7.80;;;3.25;;
63173;SDS011;49265;54.526;9.028;2024-01-06T02:22:55;5.93;;;3.55;;
63173;SDS011;49265;54.526;9.028;2024-01-06T02:25:22;7.45;;;3.22;;
63173;SDS011;49265;54.526;9.028;2024-01-06T02:27:47;7.00;;;3.25;;
63173;SDS011;49265;54.526;9.028;2024-01-06T02:30:12;8.80;;;3.80;;
63173;SDS011;49265;54.526;9.028;2024-01-06T02:32:38;10.05;;;3.80;;
63173;SDS011;49265;54.526;9.028;2024-01-06T02:35:03;6.75;;;3.92;;
63173;SDS011;49265;54.526;9.028;2024-01-06T02:37:29;7.25;;;3.22;;
63173;SDS011;49265;54.526;9.028;2024-01-06T02:39:54;7.70;;;3.80;;
63173;SDS011;49265;54.526;9.028;2024-01-06T02:42:19;9.02;;;4.50;;
63173;SDS011;49265;54.526;9.028;2024-01-06T02:44:45;8.82;;;4.10;;
63173;SDS011;49265;54.526;9.028;2024-01-06T02:47:10;7.70;;;4.18;;
63173;SDS011;49265;54.526;9.028;2024-01-06T02:49:36;9.23;;;4.28;;
63173;SDS011;49265;54.526;9.028;2024-01-06T02:52:01;8.52;;;4.25;;
63173;SDS011;49265;54.526;9.028;2024-01-06T02:54:26;7.97;;;4.00;;
63173;SDS011;49265;54.526;9.028;2024-01-06T02:56:52;9.85;;;4.35;;
63173;SDS011;49265;54.526;9.028;2024-01-06T02:59:17;7.18;;;3.90;;
63173;SDS011;49265;54.526;9.028;2024-01-06T03:01:42;9.60;;;3.90;;
63173;SDS011;49265;54.526;9.028;2024-01-06T03:04:08;7.50;;;3.80;;
63173;SDS011;49265;54.526;9.028;2024-01-06T03:06:33;7.05;;;3.83;;
63173;SDS011;49265;54.526;9.028;2024-01-06T03:08:59;9.02;;;3.78;;
63173;SDS011;49265;54.526;9.028;2024-01-06T03:11:24;9.75;;;4.03;;
63173;SDS011;49265;54.526;9.028;2024-01-06T03:13:49;11.10;;;4.15;;
63173;SDS011;49265;54.526;9.028;2024-01-06T03:16:15;8.13;;;4.07;;
63173;SDS011;49265;54.526;9.028;2024-01-06T03:18:40;8.85;;;4.07;;
63173;SDS011;49265;54.526;9.028;2024-01-06T03:21:15;7.30;;;4.15;;
63173;SDS011;49265;54.526;9.028;2024-01-06T03:23:41;7.47;;;4.00;;
63173;SDS011;49265;54.526;9.028;2024-01-06T03:26:06;5.68;;;3.65;;
63173;SDS011;49265;54.526;9.028;2024-01-06T03:28:32;8.23;;;3.45;;
63173;SDS011;49265;54.526;9.028;2024-01-06T03:30:57;9.68;;;3.88;;
63173;SDS011;49265;54.526;9.028;2024-01-06T03:33:22;6.43;;;3.30;;
63173;SDS011;49265;54.526;9.028;2024-01-06T03:35:47;6.35;;;3.33;;
63173;SDS011;49265;54.526;9.028;2024-01-06T03:38:13;6.43;;;3.73;;
63173;SDS011;49265;54.526;9.028;2024-01-06T03:40:38;9.48;;;3.65;;
63173;SDS011;49265;54.526;9.028;2024-01-06T03:43:03;9.18;;;3.50;;
63173;SDS011;49265;54.526;9.028;2024-01-06T03:45:29;10.18;;;4.10;;
63173;SDS011;49265;54.526;9.028;2024-01-06T03:47:54;7.85;;;3.60;;
63173;SDS011;49265;54.526;9.028;2024-01-06T03:50:19;7.20;;;3.28;;
63173;SDS011;49265;54.526;9.028;2024-01-06T03:52:45;4.93;;;2.95;;
63173;SDS011;49265;54.526;9.028;2024-01-06T03:55:10;5.88;;;3.78;;
63173;SDS011;49265;54.526;9.028;2024-01-06T03:57:35;7.35;;;3.15;;
63173;SDS011;49265;54.526;9.028;2024-01-06T04:00:01;9.68;;;3.47;;
63173;SDS011;49265;54.526;9.028;2024-01-06T04:04:54;5.25;;;3.03;;
63173;SDS011;49265;54.526;9.028;2024-01-06T04:07:20;6.75;;;3.38;;
63173;SDS011;49265;54.526;9.028;2024-01-06T04:09:45;10.55;;;3.50;;
63173;SDS011;49265;54.526;9.028;2024-01-06T04:12:11;7.03;;;3.78;;
63173;SDS011;49265;54.526;9.028;2024-01-06T04:14:37;7.30;;;3.42;;
63173;SDS011;49265;54.526;9.028;2024-01-06T04:17:02;8.60;;;3.28;;
63173;SDS011;49265;54.526;9.028;2024-01-06T04:19:27;6.15;;;4.20;;
63173;SDS011;49265;54.526;9.028;2024-01-06T04:21:53;6.25;;;3.10;;
63173;SDS011;49265;54.526;9.028;2024-01-06T04:24:19;6.93;;;3.13;;
63173;SDS011;49265;54.526;9.028;2024-01-06T04:26:44;4.63;;;2.92;;
63173;SDS011;49265;54.526;9.028;2024-01-06T04:29:11;6.95;;;3.15;;
63173;SDS011;49265;54.526;9.028;2024-01-06T04:31:37;7.15;;;2.97;;
63173;SDS011;49265;54.526;9.028;2024-01-06T04:34:02;7.50;;;2.70;;
63173;SDS011;49265;54.526;9.028;2024-01-06T04:36:28;6.57;;;3.00;;
63173;SDS011;49265;54.526;9.028;2024-01-06T04:38:53;6.07;;;2.42;;
63173;SDS011;49265;54.526;9.028;2024-01-06T04:41:19;10.20;;;2.83;;
63173;SDS011;49265;54.526;9.028;2024-01-06T04:43:44;8.32;;;3.33;;
63173;SDS011;49265;54.526;9.028;2024-01-06T04:46:09;10.85;;;3.25;;
63173;SDS011;49265;54.526;9.028;2024-01-06T04:48:35;4.00;;;2.30;;
63173;SDS011;49265;54.526;9.028;2024-01-06T04:51:00;4.30;;;2.65;;
63173;SDS011;49265;54.526;9.028;2024-01-06T04:53:28;9.63;;;2.83;;
63173;SDS011;49265;54.526;9.028;2024-01-06T04:55:53;5.93;;;3.22;;
63173;SDS011;49265;54.526;9.028;2024-01-06T04:58:19;6.25;;;3.03;;
63173;SDS011;49265;54.526;9.028;2024-01-06T05:00:44;6.70;;;2.92;;
63173;SDS011;49265;54.526;9.028;2024-01-06T05:03:10;6.82;;;3.20;;
63173;SDS011;49265;54.526;9.028;2024-01-06T05:05:35;7.57;;;2.58;;
63173;SDS011;49265;54.526;9.028;2024-01-06T05:08:01;6.18;;;3.10;;
63173;SDS011;49265;54.526;9.028;2024-01-06T05:10:26;7.82;;;3.67;;
63173;SDS011;49265;54.526;9.028;2024-01-06T05:12:52;5.95;;;2.60;;
63173;SDS011;49265;54.526;9.028;2024-01-06T05:15:17;6.78;;;2.58;;
63173;SDS011;49265;54.526;9.028;2024-01-06T05:17:42;5.90;;;2.35;;
63173;SDS011;49265;54.526;9.028;2024-01-06T05:20:08;8.20;;;2.53;;
63173;SDS011;49265;54.526;9.028;2024-01-06T05:22:34;5.63;;;2.63;;
63173;SDS011;49265;54.526;9.028;2024-01-06T05:24:59;6.32;;;3.22;;
63173;SDS011;49265;54.526;9.028;2024-01-06T05:27:24;11.32;;;2.90;;
63173;SDS011;49265;54.526;9.028;2024-01-06T05:29:50;7.20;;;3.25;;
63173;SDS011;49265;54.526;9.028;2024-01-06T05:32:16;7.35;;;2.95;;
63173;SDS011;49265;54.526;9.028;2024-01-06T05:34:42;4.82;;;2.50;;
63173;SDS011;49265;54.526;9.028;2024-01-06T05:37:09;5.50;;;2.80;;
63173;SDS011;49265;54.526;9.028;2024-01-06T05:39:34;5.22;;;2.60;;
63173;SDS011;49265;54.526;9.028;2024-01-06T05:42:02;5.38;;;2.47;;
63173;SDS011;49265;54.526;9.028;2024-01-06T05:44:27;5.60;;;2.38;;
63173;SDS011;49265;54.526;9.028;2024-01-06T05:46:52;6.03;;;2.47;;
63173;SDS011;49265;54.526;9.028;2024-01-06T05:49:18;6.90;;;2.60;;
63173;SDS011;49265;54.526;9.028;2024-01-06T05:51:44;7.25;;;2.85;;
63173;SDS011;49265;54.526;9.028;2024-01-06T05:54:09;5.13;;;2.67;;
63173;SDS011;49265;54.526;9.028;2024-01-06T05:56:34;7.28;;;2.67;;
63173;SDS011;49265;54.526;9.028;2024-01-06T05:59:00;5.00;;;2.42;;
63173;SDS011;49265;54.526;9.028;2024-01-06T06:01:25;6.25;;;2.85;;
63173;SDS011;49265;54.526;9.028;2024-01-06T06:03:50;6.10;;;2.13;;
63173;SDS011;49265;54.526;9.028;2024-01-06T06:06:16;8.77;;;3.35;;
63173;SDS011;49265;54.526;9.028;2024-01-06T06:08:42;8.68;;;2.67;;
63173;SDS011;49265;54.526;9.028;2024-01-06T06:11:07;5.63;;;2.50;;
63173;SDS011;49265;54.526;9.028;2024-01-06T06:13:36;7.18;;;2.15;;
63173;SDS011;49265;54.526;9.028;2024-01-06T06:16:02;10.63;;;3.08;;
63173;SDS011;49265;54.526;9.028;2024-01-06T06:18:27;4.25;;;2.47;;
63173;SDS011;49265;54.526;9.028;2024-01-06T06:20:53;5.15;;;2.30;;
63173;SDS011;49265;54.526;9.028;2024-01-06T06:23:18;4.88;;;2.00;;
63173;SDS011;49265;54.526;9.028;2024-01-06T06:25:44;4.28;;;1.98;;
63173;SDS011;49265;54.526;9.028;2024-01-06T06:28:09;4.90;;;2.88;;
63173;SDS011;49265;54.526;9.028;2024-01-06T06:30:34;5.32;;;2.00;;
63173;SDS011;49265;54.526;9.028;2024-01-06T06:33:00;5.47;;;2.33;;
63173;SDS011;49265;54.526;9.028;2024-01-06T06:35:25;8.55;;;2.70;;
63173;SDS011;49265;54.526;9.028;2024-01-06T06:37:51;7.40;;;2.58;;
63173;SDS011;49265;54.526;9.028;2024-01-06T06:40:16;3.50;;;2.03;;
63173;SDS011;49265;54.526;9.028;2024-01-06T06:42:41;8.48;;;2.33;;
63173;SDS011;49265;54.526;9.028;2024-01-06T06:45:07;7.35;;;2.95;;
63173;SDS011;49265;54.526;9.028;2024-01-06T06:47:32;9.70;;;2.85;;
63173;SDS011;49265;54.526;9.028;2024-01-06T06:49:57;8.75;;;2.55;;
63173;SDS011;49265;54.526;9.028;2024-01-06T06:52:23;6.75;;;2.25;;
63173;SDS011;49265;54.526;9.028;2024-01-06T06:54:48;6.05;;;2.83;;
63173;SDS011;49265;54.526;9.028;2024-01-06T06:57:14;7.90;;;2.85;;
63173;SDS011;49265;54.526;9.028;2024-01-06T06:59:40;5.05;;;2.33;;
63173;SDS011;49265;54.526;9.028;2024-01-06T07:02:05;5.63;;;2.35;;
63173;SDS011;49265;54.526;9.028;2024-01-06T07:04:31;6.45;;;2.53;;
63173;SDS011;49265;54.526;9.028;2024-01-06T07:06:56;6.13;;;2.88;;
63173;SDS011;49265;54.526;9.028;2024-01-06T07:09:22;6.28;;;2.33;;
63173;SDS011;49265;54.526;9.028;2024-01-06T07:11:50;6.95;;;2.28;;
63173;SDS011;49265;54.526;9.028;2024-01-06T07:14:16;5.03;;;2.30;;
63173;SDS011;49265;54.526;9.028;2024-01-06T07:16:41;6.20;;;2.28;;
63173;SDS011;49265;54.526;9.028;2024-01-06T07:19:06;8.52;;;2.28;;
63173;SDS011;49265;54.526;9.028;2024-01-06T07:21:32;5.63;;;2.20;;
63173;SDS011;49265;54.526;9.028;2024-01-06T07:23:57;5.82;;;2.63;;
63173;SDS011;49265;54.526;9.028;2024-01-06T07:26:22;6.15;;;2.58;;
63173;SDS011;49265;54.526;9.028;2024-01-06T07:28:48;4.68;;;2.08;;
63173;SDS011;49265;54.526;9.028;2024-01-06T07:31:14;5.72;;;2.35;;
63173;SDS011;49265;54.526;9.028;2024-01-06T07:33:39;4.05;;;2.28;;
63173;SDS011;49265;54.526;9.028;2024-01-06T07:36:05;5.50;;;2.10;;
63173;SDS011;49265;54.526;9.028;2024-01-06T07:38:30;5.97;;;2.45;;
63173;SDS011;49265;54.526;9.028;2024-01-06T07:40:56;5.82;;;2.55;;
63173;SDS011;49265;54.526;9.028;2024-01-06T07:43:21;7.93;;;2.28;;
63173;SDS011;49265;54.526;9.028;2024-01-06T07:45:47;3.55;;;2.28;;
63173;SDS011;49265;54.526;9.028;2024-01-06T07:48:13;6.05;;;2.30;;
63173;SDS011;49265;54.526;9.028;2024-01-06T07:50:39;6.13;;;2.85;;
63173;SDS011;49265;54.526;9.028;2024-01-06T07:53:04;4.40;;;2.13;;
63173;SDS011;49265;54.526;9.028;2024-01-06T07:55:30;7.25;;;2.50;;
63173;SDS011;49265;54.526;9.028;2024-01-06T07:57:55;5.25;;;3.00;;
63173;SDS011;49265;54.526;9.028;2024-01-06T08:00:20;7.75;;;3.08;;
63173;SDS011;49265;54.526;9.028;2024-01-06T08:02:46;6.20;;;2.97;;
63173;SDS011;49265;54.526;9.028;2024-01-06T08:05:11;5.47;;;2.70;;
63173;SDS011;49265;54.526;9.028;2024-01-06T08:07:37;5.60;;;3.15;;
63173;SDS011;49265;54.526;9.028;2024-01-06T08:10:02;5.07;;;3.40;;
63173;SDS011;49265;54.526;9.028;2024-01-06T08:12:30;5.70;;;3.72;;
63173;SDS011;49265;54.526;9.028;2024-01-06T08:14:55;6.47;;;3.38;;
63173;SDS011;49265;54.526;9.028;2024-01-06T08:17:20;5.18;;;2.88;;
63173;SDS011;49265;54.526;9.028;2024-01-06T08:19:46;9.00;;;3.60;;
63173;SDS011;49265;54.526;9.028;2024-01-06T08:22:14;9.00;;;4.15;;
63173;SDS011;49265;54.526;9.028;2024-01-06T08:24:40;9.90;;;3.80;;
63173;SDS011;49265;54.526;9.028;2024-01-06T08:27:05;10.65;;;4.60;;
63173;SDS011;49265;54.526;9.028;2024-01-06T08:29:30;13.35;;;4.80;;
63173;SDS011;49265;54.526;9.028;2024-01-06T08:31:56;7.75;;;4.45;;
63173;SDS011;49265;54.526;9.028;2024-01-06T08:34:21;8.45;;;4.63;;
63173;SDS011;49265;54.526;9.028;2024-01-06T08:36:47;8.38;;;4.43;;
63173;SDS011;49265;54.526;9.028;2024-01-06T08:39:12;7.05;;;3.95;;
63173;SDS011;49265;54.526;9.028;2024-01-06T08:41:38;12.23;;;4.85;;
63173;SDS011;49265;54.526;9.028;2024-01-06T08:44:03;10.40;;;4.53;;
63173;SDS011;49265;54.526;9.028;2024-01-06T08:46:29;9.02;;;4.07;;
63173;SDS011;49265;54.526;9.028;2024-01-06T08:48:55;10.07;;;4.88;;
63173;SDS011;49265;54.526;9.028;2024-01-06T08:51:21;11.55;;;4.57;;
63173;SDS011;49265;54.526;9.028;2024-01-06T08:53:46;8.05;;;4.28;;
63173;SDS011;49265;54.526;9.028;2024-01-06T08:56:12;9.48;;;4.47;;
63173;SDS011;49265;54.526;9.028;2024-01-06T08:58:37;7.47;;;3.97;;
63173;SDS011;49265;54.526;9.028;2024-01-06T09:01:02;8.23;;;4.60;;
63173;SDS011;49265;54.526;9.028;2024-01-06T09:03:28;10.27;;;4.75;;
63173;SDS011;49265;54.526;9.028;2024-01-06T09:05:54;7.05;;;4.10;;
63173;SDS011;49265;54.526;9.028;2024-01-06T09:08:20;5.95;;;4.00;;
63173;SDS011;49265;54.526;9.028;2024-01-06T09:10:45;8.02;;;4.45;;
63173;SDS011;49265;54.526;9.028;2024-01-06T09:13:11;9.73;;;4.50;;
63173;SDS011;49265;54.526;9.028;2024-01-06T09:15:36;8.35;;;4.50;;
63173;SDS011;49265;54.526;9.028;2024-01-06T09:18:01;7.20;;;4.13;;
63173;SDS011;49265;54.526;9.028;2024-01-06T09:20:28;7.57;;;4.63;;
63173;SDS011;49265;54.526;9.028;2024-01-06T09:22:53;7.07;;;4.20;;
63173;SDS011;49265;54.526;9.028;2024-01-06T09:25:18;6.63;;;3.83;;
63173;SDS011;49265;54.526;9.028;2024-01-06T09:27:44;9.10;;;4.32;;
63173;SDS011;49265;54.526;9.028;2024-01-06T09:30:09;7.13;;;4.10;;
63173;SDS011;49265;54.526;9.028;2024-01-06T09:32:34;9.10;;;3.83;;
63173;SDS011;49265;54.526;9.028;2024-01-06T09:35:00;7.97;;;4.22;;
63173;SDS011;49265;54.526;9.028;2024-01-06T09:37:25;9.10;;;4.55;;
63173;SDS011;49265;54.526;9.028;2024-01-06T09:39:50;7.68;;;4.15;;
63173;SDS011;49265;54.526;9.028;2024-01-06T09:42:16;9.25;;;4.45;;
63173;SDS011;49265;54.526;9.028;2024-01-06T09:44:41;10.35;;;5.53;;
63173;SDS011;49265;54.526;9.028;2024-01-06T09:47:06;11.00;;;5.32;;
63173;SDS011;49265;54.526;9.028;2024-01-06T09:49:34;7.32;;;4.30;;
63173;SDS011;49265;54.526;9.028;2024-01-06T09:51:59;7.93;;;4.60;;
63173;SDS011;49265;54.526;9.028;2024-01-06T09:54:26;7.75;;;4.35;;
63173;SDS011;49265;54.526;9.028;2024-01-06T09:56:53;10.10;;;4.68;;
63173;SDS011;49265;54.526;9.028;2024-01-06T09:59:21;9.20;;;3.95;;
63173;SDS011;49265;54.526;9.028;2024-01-06T10:01:46;11.20;;;4.57;;
63173;SDS011;49265;54.526;9.028;2024-01-06T10:04:11;10.75;;;5.57;;
63173;SDS011;49265;54.526;9.028;2024-01-06T10:06:37;10.38;;;4.60;;
63173;SDS011;49265;54.526;9.028;2024-01-06T10:09:02;10.40;;;4.82;;
63173;SDS011;49265;54.526;9.028;2024-01-06T10:11:30;9.55;;;4.57;;
63173;SDS011;49265;54.526;9.028;2024-01-06T10:13:55;10.55;;;5.55;;
63173;SDS011;49265;54.526;9.028;2024-01-06T10:16:21;9.90;;;4.30;;
63173;SDS011;49265;54.526;9.028;2024-01-06T10:18:46;10.13;;;4.72;;
63173;SDS011;49265;54.526;9.028;2024-01-06T10:21:12;11.07;;;4.93;;
63173;SDS011;49265;54.526;9.028;2024-01-06T10:23:38;11.10;;;5.00;;
63173;SDS011;49265;54.526;9.028;2024-01-06T10:26:04;9.45;;;5.32;;
63173;SDS011;49265;54.526;9.028;2024-01-06T10:28:29;9.48;;;4.97;;
63173;SDS011;49265;54.526;9.028;2024-01-06T10:30:55;11.15;;;4.90;;
63173;SDS011;49265;54.526;9.028;2024-01-06T10:33:21;11.10;;;5.28;;
63173;SDS011;49265;54.526;9.028;2024-01-06T10:35:46;11.05;;;5.00;;
63173;SDS011;49265;54.526;9.028;2024-01-06T10:38:12;13.18;;;5.43;;
63173;SDS011;49265;54.526;9.028;2024-01-06T10:40:38;9.68;;;4.72;;
63173;SDS011;49265;54.526;9.028;2024-01-06T10:43:03;10.02;;;4.55;;
63173;SDS011;49265;54.526;9.028;2024-01-06T10:45:29;8.13;;;5.03;;
63173;SDS011;49265;54.526;9.028;2024-01-06T10:47:55;7.18;;;3.95;;
63173;SDS011;49265;54.526;9.028;2024-01-06T10:50:21;9.55;;;4.57;;
63173;SDS011;49265;54.526;9.028;2024-01-06T10:52:47;9.95;;;4.85;;
63173;SDS011;49265;54.526;9.028;2024-01-06T10:55:12;8.85;;;4.60;;
63173;SDS011;49265;54.526;9.028;2024-01-06T10:57:41;10.63;;;4.93;;
63173;SDS011;49265;54.526;9.028;2024-01-06T11:00:08;9.40;;;4.80;;
63173;SDS011;49265;54.526;9.028;2024-01-06T11:02:35;7.35;;;4.68;;
63173;SDS011;49265;54.526;9.028;2024-01-06T11:05:00;10.30;;;4.80;;
63173;SDS011;49265;54.526;9.028;2024-01-06T11:07:25;9.63;;;4.97;;
63173;SDS011;49265;54.526;9.028;2024-01-06T11:10:04;7.05;;;4.63;;
63173;SDS011;49265;54.526;9.028;2024-01-06T11:12:31;8.88;;;4.97;;
63173;SDS011;49265;54.526;9.028;2024-01-06T11:14:56;7.80;;;3.88;;
63173;SDS011;49265;54.526;9.028;2024-01-06T11:20:07;8.95;;;4.50;;
63173;SDS011;49265;54.526;9.028;2024-01-06T11:22:33;7.63;;;4.07;;
63173;SDS011;49265;54.526;9.028;2024-01-06T11:25:04;9.77;;;4.45;;
63173;SDS011;49265;54.526;9.028;2024-01-06T11:27:31;10.98;;;5.25;;
63173;SDS011;49265;54.526;9.028;2024-01-06T11:29:57;14.68;;;4.45;;
63173;SDS011;49265;54.526;9.028;2024-01-06T11:32:29;11.05;;;4.75;;
63173;SDS011;49265;54.526;9.028;2024-01-06T11:34:56;11.65;;;4.53;;
63173;SDS011;49265;54.526;9.028;2024-01-06T11:37:24;8.38;;;4.50;;
63173;SDS011;49265;54.526;9.028;2024-01-06T11:39:50;11.93;;;4.40;;
63173;SDS011;49265;54.526;9.028;2024-01-06T11:42:15;12.30;;;4.45;;
63173;SDS011;49265;54.526;9.028;2024-01-06T11:44:44;11.05;;;4.65;;
63173;SDS011;49265;54.526;9.028;2024-01-06T11:47:11;9.43;;;4.70;;
63173;SDS011;49265;54.526;9.028;2024-01-06T11:49:37;10.35;;;5.25;;
63173;SDS011;49265;54.526;9.028;2024-01-06T11:52:02;8.20;;;4.03;;
63173;SDS011;49265;54.526;9.028;2024-01-06T11:54:28;9.93;;;4.25;;
63173;SDS011;49265;54.526;9.028;2024-01-06T11:56:53;12.20;;;4.47;;
63173;SDS011;49265;54.526;9.028;2024-01-06T11:59:19;7.15;;;4.30;;
63173;SDS011;49265;54.526;9.028;2024-01-06T12:01:45;10.60;;;4.65;;
63173;SDS011;49265;54.526;9.028;2024-01-06T12:04:10;10.35;;;4.88;;
63173;SDS011;49265;54.526;9.028;2024-01-06T12:06:38;11.20;;;4.60;;
63173;SDS011;49265;54.526;9.028;2024-01-06T12:09:07;9.45;;;4.75;;
63173;SDS011;49265;54.526;9.028;2024-01-06T12:11:33;10.02;;;4.47;;
63173;SDS011;49265;54.526;9.028;2024-01-06T12:13:58;12.15;;;3.83;;
63173;SDS011;49265;54.526;9.028;2024-01-06T12:16:24;10.73;;;4.22;;
63173;SDS011;49265;54.526;9.028;2024-01-06T12:18:55;9.43;;;4.88;;
63173;SDS011;49265;54.526;9.028;2024-01-06T12:21:22;7.72;;;3.88;;
63173;SDS011;49265;54.526;9.028;2024-01-06T12:23:47;10.68;;;4.20;;
63173;SDS011;49265;54.526;9.028;2024-01-06T12:26:13;8.23;;;4.45;;
63173;SDS011;49265;54.526;9.028;2024-01-06T12:28:38;10.13;;;4.07;;
63173;SDS011;49265;54.526;9.028;2024-01-06T12:31:04;9.60;;;3.58;;
63173;SDS011;49265;54.526;9.028;2024-01-06T12:33:30;7.93;;;3.85;;
63173;SDS011;49265;54.526;9.028;2024-01-06T12:35:56;10.00;;;4.15;;
63173;SDS011;49265;54.526;9.028;2024-01-06T12:38:22;9.10;;;4.45;;
63173;SDS011;49265;54.526;9.028;2024-01-06T12:40:47;7.75;;;3.78;;
63173;SDS011;49265;54.526;9.028;2024-01-06T12:43:12;11.45;;;4.82;;
63173;SDS011;49265;54.526;9.028;2024-01-06T12:45:38;7.70;;;3.40;;
63173;SDS011;49265;54.526;9.028;2024-01-06T12:48:03;8.88;;;4.15;;
63173;SDS011;49265;54.526;9.028;2024-01-06T12:50:28;11.25;;;4.55;;
63173;SDS011;49265;54.526;9.028;2024-01-06T12:52:54;13.73;;;4.10;;
63173;SDS011;49265;54.526;9.028;2024-01-06T12:55:19;8.63;;;4.05;;
63173;SDS011;49265;54.526;9.028;2024-01-06T12:57:45;8.10;;;4.43;;
63173;SDS011;49265;54.526;9.028;2024-01-06T13:00:10;13.05;;;4.57;;
63173;SDS011;49265;54.526;9.028;2024-01-06T13:02:37;9.98;;;5.47;;
63173;SDS011;49265;54.526;9.028;2024-01-06T13:05:02;8.57;;;4.13;;
63173;SDS011;49265;54.526;9.028;2024-01-06T13:07:28;12.77;;;4.70;;
63173;SDS011;49265;54.526;9.028;2024-01-06T13:09:53;10.07;;;4.70;;
63173;SDS011;49265;54.526;9.028;2024-01-06T13:12:19;11.35;;;6.15;;
63173;SDS011;49265;54.526;9.028;2024-01-06T13:14:45;10.40;;;4.57;;
63173;SDS011;49265;54.526;9.028;2024-01-06T13:17:12;11.00;;;5.03;;
63173;SDS011;49265;54.526;9.028;2024-01-06T13:19:39;7.45;;;3.65;;
63173;SDS011;49265;54.526;9.028;2024-01-06T13:22:04;16.90;;;7.07;;
63173;SDS011;49265;54.526;9.028;2024-01-06T13:24:30;12.05;;;5.82;;
63173;SDS011;49265;54.526;9.028;2024-01-06T13:26:55;10.90;;;5.43;;
63173;SDS011;49265;54.526;9.028;2024-01-06T13:29:20;8.73;;;4.43;;
63173;SDS011;49265;54.526;9.028;2024-01-06T13:31:45;16.45;;;7.57;;
63173;SDS011;49265;54.526;9.028;2024-01-06T13:34:11;13.65;;;6.10;;
63173;SDS011;49265;54.526;9.028;2024-01-06T13:36:36;9.02;;;4.03;;
63173;SDS011;49265;54.526;9.028;2024-01-06T13:39:02;8.57;;;3.78;;
63173;SDS011;49265;54.526;9.028;2024-01-06T13:41:29;8.75;;;3.97;;
63173;SDS011;49265;54.526;9.028;2024-01-06T13:43:54;7.97;;;3.72;;
63173;SDS011;49265;54.526;9.028;2024-01-06T13:46:20;9.93;;;4.00;;
63173;SDS011;49265;54.526;9.028;2024-01-06T13:48:45;10.48;;;3.95;;
63173;SDS011;49265;54.526;9.028;2024-01-06T13:51:10;10.05;;;4.63;;
63173;SDS011;49265;54.526;9.028;2024-01-06T13:53:36;14.68;;;5.07;;
63173;SDS011;49265;54.526;9.028;2024-01-06T13:56:01;10.68;;;4.88;;
63173;SDS011;49265;54.526;9.028;2024-01-06T13:58:27;9.20;;;4.88;;
63173;SDS011;49265;54.526;9.028;2024-01-06T14:00:53;13.05;;;5.90;;
63173;SDS011;49265;54.526;9.028;2024-01-06T14:03:18;12.27;;;5.43;;
63173;SDS011;49265;54.526;9.028;2024-01-06T14:05:43;13.80;;;6.53;;
63173;SDS011;49265;54.526;9.028;2024-01-06T14:08:09;10.65;;;5.43;;
63173;SDS011;49265;54.526;9.028;2024-01-06T14:10:34;6.50;;;3.72;;
63173;SDS011;49265;54.526;9.028;2024-01-06T14:13:00;21.77;;;9.25;;
63173;SDS011;49265;54.526;9.028;2024-01-06T14:15:25;11.57;;;4.82;;
63173;SDS011;49265;54.526;9.028;2024-01-06T14:17:52;8.18;;;4.40;;
63173;SDS011;49265;54.526;9.028;2024-01-06T14:20:17;11.38;;;5.75;;
63173;SDS011;49265;54.526;9.028;2024-01-06T14:22:44;6.32;;;3.72;;
63173;SDS011;49265;54.526;9.028;2024-01-06T14:25:09;12.40;;;4.35;;
63173;SDS011;49265;54.526;9.028;2024-01-06T14:27:35;19.10;;;7.50;;
63173;SDS011;49265;54.526;9.028;2024-01-06T14:30:00;8.55;;;4.18;;
63173;SDS011;49265;54.526;9.028;2024-01-06T14:32:26;13.85;;;4.80;;
63173;SDS011;49265;54.526;9.028;2024-01-06T14:34:51;14.13;;;5.90;;
63173;SDS011;49265;54.526;9.028;2024-01-06T14:37:16;12.40;;;5.43;;
63173;SDS011;49265;54.526;9.028;2024-01-06T14:39:42;9.20;;;4.47;;
63173;SDS011;49265;54.526;9.028;2024-01-06T14:42:07;10.65;;;4.78;;